sensor_id;sensor_type;location;lat;lon;timestamp;P1;durP1;ratioP1;P2;durP2;ratioP2
12151;SDS011;6139;51.274;7.128;2023-07-29T00:00:31;4.22;;;3.92;;
12151;SDS011;6139;51.274;7.128;2023-07-29T00:01:34;4.72;;;3.97;;
12151;SDS011;6139;51.274;7.128;2023-07-29T00:02:35;6.97;;;3.88;;
12151;SDS011;6139;51.274;7.128;2023-07-29T00:03:37;4.18;;;3.78;;
12151;SDS011;6139;51.274;7.128;2023-07-29T00:04:38;4.22;;;3.45;;
12151;SDS011;6139;51.274;7.128;2023-07-29T00:05:40;3.90;;;3.60;;
12151;SDS011;6139;51.274;7.128;2023-07-29T00:06:41;3.50;;;3.20;;
12151;SDS011;6139;51.274;7.128;2023-07-29T00:07:43;4.03;;;3.20;;
12151;SDS011;6139;51.274;7.128;2023-07-29T00:08:44;3.60;;;3.30;;
12151;SDS011;6139;51.274;7.128;2023-07-29T00:09:47;3.92;;;3.63;;
12151;SDS011;6139;51.274;7.128;2023-07-29T00:10:48;3.38;;;3.17;;
12151;SDS011;6139;51.274;7.128;2023-07-29T00:11:50;3.60;;;3.30;;
12151;SDS011;6139;51.274;7.128;2023-07-29T00:12:51;3.47;;;3.10;;
12151;SDS011;6139;51.274;7.128;2023-07-29T00:13:53;3.33;;;3.03;;
12151;SDS011;6139;51.274;7.128;2023-07-29T00:14:55;3.50;;;3.20;;
12151;SDS011;6139;51.274;7.128;2023-07-29T00:15:57;3.20;;;2.85;;
12151;SDS011;6139;51.274;7.128;2023-07-29T00:16:58;3.10;;;2.75;;
12151;SDS011;6139;51.274;7.128;2023-07-29T00:18:00;3.78;;;2.88;;
12151;SDS011;6139;51.274;7.128;2023-07-29T00:19:02;2.85;;;2.55;;
12151;SDS011;6139;51.274;7.128;2023-07-29T00:20:04;2.72;;;2.47;;
12151;SDS011;6139;51.274;7.128;2023-07-29T00:21:06;2.78;;;2.58;;
12151;SDS011;6139;51.274;7.128;2023-07-29T00:22:08;3.00;;;2.40;;
12151;SDS011;6139;51.274;7.128;2023-07-29T00:23:09;4.00;;;2.38;;
12151;SDS011;6139;51.274;7.128;2023-07-29T00:24:11;3.42;;;2.47;;
12151;SDS011;6139;51.274;7.128;2023-07-29T00:25:14;2.47;;;2.28;;
12151;SDS011;6139;51.274;7.128;2023-07-29T00:26:16;2.65;;;2.45;;
12151;SDS011;6139;51.274;7.128;2023-07-29T00:27:17;2.67;;;2.47;;
12151;SDS011;6139;51.274;7.128;2023-07-29T00:28:19;2.90;;;2.38;;
12151;SDS011;6139;51.274;7.128;2023-07-29T00:29:20;3.53;;;2.72;;
12151;SDS011;6139;51.274;7.128;2023-07-29T00:30:22;2.35;;;2.25;;
12151;SDS011;6139;51.274;7.128;2023-07-29T00:31:22;3.28;;;2.42;;
12151;SDS011;6139;51.274;7.128;2023-07-29T00:32:25;3.67;;;2.38;;
12151;SDS011;6139;51.274;7.128;2023-07-29T00:33:27;3.22;;;2.33;;
12151;SDS011;6139;51.274;7.128;2023-07-29T00:34:29;3.05;;;2.30;;
12151;SDS011;6139;51.274;7.128;2023-07-29T00:35:31;3.92;;;2.25;;
12151;SDS011;6139;51.274;7.128;2023-07-29T00:36:34;2.10;;;2.00;;
12151;SDS011;6139;51.274;7.128;2023-07-29T00:37:36;2.75;;;2.10;;
12151;SDS011;6139;51.274;7.128;2023-07-29T00:38:38;2.20;;;2.08;;
12151;SDS011;6139;51.274;7.128;2023-07-29T00:39:40;2.22;;;2.03;;
12151;SDS011;6139;51.274;7.128;2023-07-29T00:40:44;2.80;;;2.60;;
12151;SDS011;6139;51.274;7.128;2023-07-29T00:41:46;3.10;;;2.15;;
12151;SDS011;6139;51.274;7.128;2023-07-29T00:42:47;4.13;;;2.00;;
12151;SDS011;6139;51.274;7.128;2023-07-29T00:43:49;2.30;;;2.10;;
12151;SDS011;6139;51.274;7.128;2023-07-29T00:44:51;2.38;;;2.10;;
12151;SDS011;6139;51.274;7.128;2023-07-29T00:45:53;3.58;;;2.10;;
12151;SDS011;6139;51.274;7.128;2023-07-29T00:46:57;3.03;;;1.83;;
12151;SDS011;6139;51.274;7.128;2023-07-29T00:48:01;2.72;;;2.30;;
12151;SDS011;6139;51.274;7.128;2023-07-29T00:49:03;3.05;;;2.00;;
12151;SDS011;6139;51.274;7.128;2023-07-29T00:50:04;2.38;;;2.15;;
12151;SDS011;6139;51.274;7.128;2023-07-29T00:51:06;3.63;;;2.20;;
12151;SDS011;6139;51.274;7.128;2023-07-29T00:52:08;2.40;;;2.20;;
12151;SDS011;6139;51.274;7.128;2023-07-29T00:53:12;2.30;;;2.10;;
12151;SDS011;6139;51.274;7.128;2023-07-29T00:54:14;2.50;;;2.30;;
12151;SDS011;6139;51.274;7.128;2023-07-29T00:55:15;1.90;;;1.80;;
12151;SDS011;6139;51.274;7.128;2023-07-29T00:56:19;2.00;;;1.90;;
12151;SDS011;6139;51.274;7.128;2023-07-29T00:57:20;2.20;;;2.00;;
12151;SDS011;6139;51.274;7.128;2023-07-29T00:58:22;5.07;;;2.22;;
12151;SDS011;6139;51.274;7.128;2023-07-29T00:59:24;2.30;;;2.10;;
12151;SDS011;6139;51.274;7.128;2023-07-29T01:00:28;2.20;;;2.00;;
12151;SDS011;6139;51.274;7.128;2023-07-29T01:01:29;2.17;;;2.05;;
12151;SDS011;6139;51.274;7.128;2023-07-29T01:02:31;2.22;;;2.05;;
12151;SDS011;6139;51.274;7.128;2023-07-29T01:03:33;4.20;;;1.98;;
12151;SDS011;6139;51.274;7.128;2023-07-29T01:04:36;2.97;;;2.00;;
12151;SDS011;6139;51.274;7.128;2023-07-29T01:05:39;2.58;;;2.05;;
12151;SDS011;6139;51.274;7.128;2023-07-29T01:06:50;2.75;;;2.00;;
12151;SDS011;6139;51.274;7.128;2023-07-29T01:07:59;2.17;;;1.83;;
12151;SDS011;6139;51.274;7.128;2023-07-29T01:09:09;2.28;;;2.17;;
12151;SDS011;6139;51.274;7.128;2023-07-29T01:10:19;3.03;;;2.00;;
12151;SDS011;6139;51.274;7.128;2023-07-29T01:11:38;1.90;;;1.80;;
12151;SDS011;6139;51.274;7.128;2023-07-29T01:12:47;2.15;;;1.95;;
12151;SDS011;6139;51.274;7.128;2023-07-29T01:13:53;2.10;;;2.00;;
12151;SDS011;6139;51.274;7.128;2023-07-29T01:15:04;2.33;;;2.00;;
12151;SDS011;6139;51.274;7.128;2023-07-29T01:16:13;2.20;;;2.00;;
12151;SDS011;6139;51.274;7.128;2023-07-29T01:17:25;1.77;;;1.67;;
12151;SDS011;6139;51.274;7.128;2023-07-29T01:18:35;2.42;;;2.08;;
12151;SDS011;6139;51.274;7.128;2023-07-29T01:19:42;2.30;;;2.10;;
12151;SDS011;6139;51.274;7.128;2023-07-29T01:20:49;2.50;;;1.88;;
12151;SDS011;6139;51.274;7.128;2023-07-29T01:21:54;2.70;;;2.40;;
12151;SDS011;6139;51.274;7.128;2023-07-29T01:22:57;2.30;;;2.10;;
12151;SDS011;6139;51.274;7.128;2023-07-29T01:23:59;3.08;;;2.00;;
12151;SDS011;6139;51.274;7.128;2023-07-29T01:25:01;3.08;;;2.38;;
12151;SDS011;6139;51.274;7.128;2023-07-29T01:26:03;3.00;;;2.22;;
12151;SDS011;6139;51.274;7.128;2023-07-29T01:27:05;2.30;;;2.10;;
12151;SDS011;6139;51.274;7.128;2023-07-29T01:28:06;2.38;;;2.17;;
12151;SDS011;6139;51.274;7.128;2023-07-29T01:29:09;2.00;;;1.90;;
12151;SDS011;6139;51.274;7.128;2023-07-29T01:30:10;3.15;;;2.08;;
12151;SDS011;6139;51.274;7.128;2023-07-29T01:31:13;2.30;;;2.10;;
12151;SDS011;6139;51.274;7.128;2023-07-29T01:32:19;2.50;;;2.30;;
12151;SDS011;6139;51.274;7.128;2023-07-29T01:33:30;3.55;;;2.30;;
12151;SDS011;6139;51.274;7.128;2023-07-29T01:34:39;3.20;;;2.15;;
12151;SDS011;6139;51.274;7.128;2023-07-29T01:35:46;2.20;;;2.00;;
12151;SDS011;6139;51.274;7.128;2023-07-29T01:36:50;2.00;;;1.90;;
12151;SDS011;6139;51.274;7.128;2023-07-29T01:37:55;5.45;;;2.55;;
12151;SDS011;6139;51.274;7.128;2023-07-29T01:39:02;3.33;;;2.10;;
12151;SDS011;6139;51.274;7.128;2023-07-29T01:40:03;3.30;;;2.08;;
12151;SDS011;6139;51.274;7.128;2023-07-29T01:41:08;2.40;;;2.20;;
12151;SDS011;6139;51.274;7.128;2023-07-29T01:42:09;2.55;;;2.03;;
12151;SDS011;6139;51.274;7.128;2023-07-29T01:43:12;2.40;;;2.20;;
12151;SDS011;6139;51.274;7.128;2023-07-29T01:44:13;2.33;;;2.08;;
12151;SDS011;6139;51.274;7.128;2023-07-29T01:45:16;2.35;;;2.20;;
12151;SDS011;6139;51.274;7.128;2023-07-29T01:46:17;2.13;;;1.92;;
12151;SDS011;6139;51.274;7.128;2023-07-29T01:47:18;2.47;;;1.98;;
12151;SDS011;6139;51.274;7.128;2023-07-29T01:48:22;2.30;;;2.10;;
12151;SDS011;6139;51.274;7.128;2023-07-29T01:49:24;3.35;;;2.10;;
12151;SDS011;6139;51.274;7.128;2023-07-29T01:50:26;2.40;;;2.20;;
12151;SDS011;6139;51.274;7.128;2023-07-29T01:51:27;2.03;;;1.92;;
12151;SDS011;6139;51.274;7.128;2023-07-29T01:52:29;2.60;;;2.40;;
12151;SDS011;6139;51.274;7.128;2023-07-29T01:53:30;2.10;;;1.90;;
12151;SDS011;6139;51.274;7.128;2023-07-29T01:54:34;2.55;;;2.30;;
12151;SDS011;6139;51.274;7.128;2023-07-29T01:55:36;2.20;;;2.05;;
12151;SDS011;6139;51.274;7.128;2023-07-29T01:56:38;2.10;;;2.00;;
12151;SDS011;6139;51.274;7.128;2023-07-29T01:57:39;2.55;;;2.35;;
12151;SDS011;6139;51.274;7.128;2023-07-29T01:58:40;2.50;;;2.22;;
12151;SDS011;6139;51.274;7.128;2023-07-29T01:59:42;3.75;;;2.28;;
12151;SDS011;6139;51.274;7.128;2023-07-29T02:00:43;4.13;;;2.20;;
12151;SDS011;6139;51.274;7.128;2023-07-29T02:01:45;3.75;;;2.50;;
12151;SDS011;6139;51.274;7.128;2023-07-29T02:02:46;2.42;;;2.22;;
12151;SDS011;6139;51.274;7.128;2023-07-29T02:03:48;2.22;;;2.13;;
12151;SDS011;6139;51.274;7.128;2023-07-29T02:04:54;2.83;;;2.20;;
12151;SDS011;6139;51.274;7.128;2023-07-29T02:05:56;2.40;;;2.20;;
12151;SDS011;6139;51.274;7.128;2023-07-29T02:06:58;3.03;;;2.13;;
12151;SDS011;6139;51.274;7.128;2023-07-29T02:07:59;4.75;;;2.45;;
12151;SDS011;6139;51.274;7.128;2023-07-29T02:09:00;5.15;;;2.50;;
12151;SDS011;6139;51.274;7.128;2023-07-29T02:10:06;2.60;;;2.40;;
12151;SDS011;6139;51.274;7.128;2023-07-29T02:11:08;3.33;;;2.80;;
12151;SDS011;6139;51.274;7.128;2023-07-29T02:12:10;3.70;;;2.40;;
12151;SDS011;6139;51.274;7.128;2023-07-29T02:13:14;2.60;;;2.40;;
12151;SDS011;6139;51.274;7.128;2023-07-29T02:14:16;2.60;;;2.40;;
12151;SDS011;6139;51.274;7.128;2023-07-29T02:15:17;3.53;;;2.50;;
12151;SDS011;6139;51.274;7.128;2023-07-29T02:16:19;2.83;;;2.45;;
12151;SDS011;6139;51.274;7.128;2023-07-29T02:17:20;4.55;;;2.35;;
12151;SDS011;6139;51.274;7.128;2023-07-29T02:18:22;2.60;;;2.40;;
12151;SDS011;6139;51.274;7.128;2023-07-29T02:19:23;2.63;;;2.42;;
12151;SDS011;6139;51.274;7.128;2023-07-29T02:20:25;2.78;;;2.55;;
12151;SDS011;6139;51.274;7.128;2023-07-29T02:21:26;2.80;;;2.60;;
12151;SDS011;6139;51.274;7.128;2023-07-29T02:22:28;3.75;;;2.97;;
12151;SDS011;6139;51.274;7.128;2023-07-29T02:23:30;3.13;;;2.40;;
12151;SDS011;6139;51.274;7.128;2023-07-29T02:24:32;3.47;;;2.53;;
12151;SDS011;6139;51.274;7.128;2023-07-29T02:25:36;2.63;;;2.42;;
12151;SDS011;6139;51.274;7.128;2023-07-29T02:26:38;2.90;;;2.70;;
12151;SDS011;6139;51.274;7.128;2023-07-29T02:27:39;4.43;;;2.72;;
12151;SDS011;6139;51.274;7.128;2023-07-29T02:28:41;2.80;;;2.50;;
12151;SDS011;6139;51.274;7.128;2023-07-29T02:29:42;2.95;;;2.67;;
12151;SDS011;6139;51.274;7.128;2023-07-29T02:30:44;2.97;;;2.78;;
12151;SDS011;6139;51.274;7.128;2023-07-29T02:31:45;2.95;;;2.75;;
12151;SDS011;6139;51.274;7.128;2023-07-29T02:32:47;2.70;;;2.50;;
12151;SDS011;6139;51.274;7.128;2023-07-29T02:33:49;4.82;;;2.60;;
12151;SDS011;6139;51.274;7.128;2023-07-29T02:34:51;3.55;;;2.72;;
12151;SDS011;6139;51.274;7.128;2023-07-29T02:35:52;2.85;;;2.65;;
12151;SDS011;6139;51.274;7.128;2023-07-29T02:36:54;3.20;;;2.90;;
12151;SDS011;6139;51.274;7.128;2023-07-29T02:37:56;2.83;;;2.63;;
12151;SDS011;6139;51.274;7.128;2023-07-29T02:38:58;2.70;;;2.50;;
12151;SDS011;6139;51.274;7.128;2023-07-29T02:39:59;2.70;;;2.50;;
12151;SDS011;6139;51.274;7.128;2023-07-29T02:41:03;2.90;;;2.70;;
12151;SDS011;6139;51.274;7.128;2023-07-29T02:42:04;3.03;;;2.83;;
12151;SDS011;6139;51.274;7.128;2023-07-29T02:43:06;3.30;;;3.00;;
12151;SDS011;6139;51.274;7.128;2023-07-29T02:44:07;2.83;;;2.50;;
12151;SDS011;6139;51.274;7.128;2023-07-29T02:45:09;2.50;;;2.30;;
12151;SDS011;6139;51.274;7.128;2023-07-29T02:46:11;3.90;;;2.70;;
12151;SDS011;6139;51.274;7.128;2023-07-29T02:47:13;3.10;;;2.70;;
12151;SDS011;6139;51.274;7.128;2023-07-29T02:48:14;3.40;;;2.83;;
12151;SDS011;6139;51.274;7.128;2023-07-29T02:49:15;2.95;;;2.63;;
12151;SDS011;6139;51.274;7.128;2023-07-29T02:50:17;2.85;;;2.55;;
12151;SDS011;6139;51.274;7.128;2023-07-29T02:51:18;4.93;;;3.00;;
12151;SDS011;6139;51.274;7.128;2023-07-29T02:52:20;4.38;;;2.90;;
12151;SDS011;6139;51.274;7.128;2023-07-29T02:53:21;3.60;;;3.05;;
12151;SDS011;6139;51.274;7.128;2023-07-29T02:54:24;3.75;;;3.10;;
12151;SDS011;6139;51.274;7.128;2023-07-29T02:55:25;2.92;;;2.65;;
12151;SDS011;6139;51.274;7.128;2023-07-29T02:56:29;5.28;;;3.42;;
12151;SDS011;6139;51.274;7.128;2023-07-29T02:57:31;3.10;;;2.90;;
12151;SDS011;6139;51.274;7.128;2023-07-29T02:58:33;3.10;;;2.90;;
12151;SDS011;6139;51.274;7.128;2023-07-29T02:59:34;3.50;;;3.17;;
12151;SDS011;6139;51.274;7.128;2023-07-29T03:00:36;3.50;;;3.20;;
12151;SDS011;6139;51.274;7.128;2023-07-29T03:01:37;3.75;;;3.45;;
12151;SDS011;6139;51.274;7.128;2023-07-29T03:02:39;3.80;;;3.50;;
12151;SDS011;6139;51.274;7.128;2023-07-29T03:03:40;6.95;;;3.30;;
12151;SDS011;6139;51.274;7.128;2023-07-29T03:04:42;3.70;;;3.30;;
12151;SDS011;6139;51.274;7.128;2023-07-29T03:05:43;3.75;;;3.45;;
12151;SDS011;6139;51.274;7.128;2023-07-29T03:06:45;4.72;;;3.70;;
12151;SDS011;6139;51.274;7.128;2023-07-29T03:07:48;5.00;;;3.80;;
12151;SDS011;6139;51.274;7.128;2023-07-29T03:08:50;3.97;;;3.67;;
12151;SDS011;6139;51.274;7.128;2023-07-29T03:09:51;4.53;;;3.80;;
12151;SDS011;6139;51.274;7.128;2023-07-29T03:10:52;4.13;;;3.83;;
12151;SDS011;6139;51.274;7.128;2023-07-29T03:11:56;5.13;;;3.90;;
12151;SDS011;6139;51.274;7.128;2023-07-29T03:12:57;4.43;;;3.97;;
12151;SDS011;6139;51.274;7.128;2023-07-29T03:13:58;4.05;;;3.67;;
12151;SDS011;6139;51.274;7.128;2023-07-29T03:15:03;4.97;;;3.80;;
12151;SDS011;6139;51.274;7.128;2023-07-29T03:16:05;4.20;;;3.90;;
12151;SDS011;6139;51.274;7.128;2023-07-29T03:17:07;3.70;;;3.40;;
12151;SDS011;6139;51.274;7.128;2023-07-29T03:18:09;4.63;;;4.07;;
12151;SDS011;6139;51.274;7.128;2023-07-29T03:19:11;5.03;;;3.83;;
12151;SDS011;6139;51.274;7.128;2023-07-29T03:20:13;5.53;;;4.22;;
12151;SDS011;6139;51.274;7.128;2023-07-29T03:21:15;4.13;;;3.72;;
12151;SDS011;6139;51.274;7.128;2023-07-29T03:22:16;5.35;;;4.03;;
12151;SDS011;6139;51.274;7.128;2023-07-29T03:23:18;4.97;;;4.53;;
12151;SDS011;6139;51.274;7.128;2023-07-29T03:24:19;5.55;;;4.50;;
12151;SDS011;6139;51.274;7.128;2023-07-29T03:25:21;5.15;;;4.60;;
12151;SDS011;6139;51.274;7.128;2023-07-29T03:26:22;5.10;;;3.90;;
12151;SDS011;6139;51.274;7.128;2023-07-29T03:27:25;4.82;;;4.43;;
12151;SDS011;6139;51.274;7.128;2023-07-29T03:28:27;6.22;;;5.13;;
12151;SDS011;6139;51.274;7.128;2023-07-29T03:29:30;6.75;;;4.53;;
12151;SDS011;6139;51.274;7.128;2023-07-29T03:30:31;4.75;;;4.35;;
12151;SDS011;6139;51.274;7.128;2023-07-29T03:31:33;5.10;;;4.70;;
12151;SDS011;6139;51.274;7.128;2023-07-29T03:32:34;5.15;;;4.57;;
12151;SDS011;6139;51.274;7.128;2023-07-29T03:33:36;4.43;;;4.03;;
12151;SDS011;6139;51.274;7.128;2023-07-29T03:34:37;6.13;;;4.60;;
12151;SDS011;6139;51.274;7.128;2023-07-29T03:35:40;4.75;;;4.40;;
12151;SDS011;6139;51.274;7.128;2023-07-29T03:36:44;5.35;;;4.85;;
12151;SDS011;6139;51.274;7.128;2023-07-29T03:37:48;8.50;;;4.60;;
12151;SDS011;6139;51.274;7.128;2023-07-29T03:38:49;7.15;;;6.45;;
12151;SDS011;6139;51.274;7.128;2023-07-29T03:39:50;6.72;;;6.22;;
12151;SDS011;6139;51.274;7.128;2023-07-29T03:40:52;10.23;;;6.38;;
12151;SDS011;6139;51.274;7.128;2023-07-29T03:41:54;6.72;;;6.15;;
12151;SDS011;6139;51.274;7.128;2023-07-29T03:42:57;7.40;;;6.80;;
12151;SDS011;6139;51.274;7.128;2023-07-29T03:43:59;7.68;;;6.95;;
12151;SDS011;6139;51.274;7.128;2023-07-29T03:45:00;8.07;;;7.38;;
12151;SDS011;6139;51.274;7.128;2023-07-29T03:46:02;8.63;;;7.80;;
12151;SDS011;6139;51.274;7.128;2023-07-29T03:47:03;8.52;;;7.80;;
12151;SDS011;6139;51.274;7.128;2023-07-29T03:48:06;8.00;;;7.30;;
12151;SDS011;6139;51.274;7.128;2023-07-29T03:49:07;8.73;;;7.97;;
12151;SDS011;6139;51.274;7.128;2023-07-29T03:50:09;8.60;;;7.85;;
12151;SDS011;6139;51.274;7.128;2023-07-29T03:51:10;9.52;;;8.70;;
12151;SDS011;6139;51.274;7.128;2023-07-29T03:52:11;9.85;;;9.13;;
12151;SDS011;6139;51.274;7.128;2023-07-29T03:53:13;10.00;;;9.20;;
12151;SDS011;6139;51.274;7.128;2023-07-29T03:54:14;10.25;;;9.25;;
12151;SDS011;6139;51.274;7.128;2023-07-29T03:55:16;10.90;;;9.93;;
12151;SDS011;6139;51.274;7.128;2023-07-29T03:56:17;12.07;;;10.77;;
12151;SDS011;6139;51.274;7.128;2023-07-29T03:57:18;13.52;;;12.43;;
12151;SDS011;6139;51.274;7.128;2023-07-29T03:58:22;12.63;;;11.52;;
12151;SDS011;6139;51.274;7.128;2023-07-29T03:59:23;12.30;;;11.30;;
12151;SDS011;6139;51.274;7.128;2023-07-29T04:00:25;13.30;;;12.00;;
12151;SDS011;6139;51.274;7.128;2023-07-29T04:01:27;13.38;;;12.18;;
12151;SDS011;6139;51.274;7.128;2023-07-29T04:02:29;14.18;;;12.98;;
12151;SDS011;6139;51.274;7.128;2023-07-29T04:03:31;12.88;;;11.77;;
12151;SDS011;6139;51.274;7.128;2023-07-29T04:04:34;13.48;;;12.38;;
12151;SDS011;6139;51.274;7.128;2023-07-29T04:05:35;13.23;;;12.02;;
12151;SDS011;6139;51.274;7.128;2023-07-29T04:06:37;14.90;;;13.60;;
12151;SDS011;6139;51.274;7.128;2023-07-29T04:07:38;15.75;;;14.25;;
12151;SDS011;6139;51.274;7.128;2023-07-29T04:08:41;14.45;;;13.10;;
12151;SDS011;6139;51.274;7.128;2023-07-29T04:09:42;15.57;;;14.27;;
12151;SDS011;6139;51.274;7.128;2023-07-29T04:10:44;15.13;;;13.82;;
12151;SDS011;6139;51.274;7.128;2023-07-29T04:11:45;15.75;;;14.35;;
12151;SDS011;6139;51.274;7.128;2023-07-29T04:12:48;16.17;;;14.77;;
12151;SDS011;6139;51.274;7.128;2023-07-29T04:13:50;16.33;;;14.80;;
12151;SDS011;6139;51.274;7.128;2023-07-29T04:14:52;16.65;;;15.10;;
12151;SDS011;6139;51.274;7.128;2023-07-29T04:15:53;17.40;;;15.63;;
12151;SDS011;6139;51.274;7.128;2023-07-29T04:16:55;17.13;;;15.40;;
12151;SDS011;6139;51.274;7.128;2023-07-29T04:17:57;15.60;;;14.20;;
12151;SDS011;6139;51.274;7.128;2023-07-29T04:18:59;16.52;;;15.02;;
12151;SDS011;6139;51.274;7.128;2023-07-29T04:20:00;16.75;;;15.05;;
12151;SDS011;6139;51.274;7.128;2023-07-29T04:21:07;16.02;;;14.63;;
12151;SDS011;6139;51.274;7.128;2023-07-29T04:22:08;16.65;;;15.15;;
12151;SDS011;6139;51.274;7.128;2023-07-29T04:23:10;15.57;;;14.15;;
12151;SDS011;6139;51.274;7.128;2023-07-29T04:24:11;15.73;;;14.32;;
12151;SDS011;6139;51.274;7.128;2023-07-29T04:25:13;15.07;;;13.77;;
12151;SDS011;6139;51.274;7.128;2023-07-29T04:26:14;15.60;;;14.30;;
12151;SDS011;6139;51.274;7.128;2023-07-29T04:27:16;16.38;;;14.93;;
12151;SDS011;6139;51.274;7.128;2023-07-29T04:28:17;15.98;;;14.50;;
12151;SDS011;6139;51.274;7.128;2023-07-29T04:29:21;15.45;;;13.95;;
12151;SDS011;6139;51.274;7.128;2023-07-29T04:30:23;14.63;;;13.32;;
12151;SDS011;6139;51.274;7.128;2023-07-29T04:31:25;15.23;;;13.85;;
12151;SDS011;6139;51.274;7.128;2023-07-29T04:32:26;13.90;;;12.68;;
12151;SDS011;6139;51.274;7.128;2023-07-29T04:33:29;14.63;;;13.32;;
12151;SDS011;6139;51.274;7.128;2023-07-29T04:34:30;12.98;;;11.95;;
12151;SDS011;6139;51.274;7.128;2023-07-29T04:35:34;13.75;;;12.60;;
12151;SDS011;6139;51.274;7.128;2023-07-29T04:36:35;13.20;;;11.80;;
12151;SDS011;6139;51.274;7.128;2023-07-29T04:37:37;12.68;;;11.57;;
12151;SDS011;6139;51.274;7.128;2023-07-29T04:38:38;11.88;;;10.85;;
12151;SDS011;6139;51.274;7.128;2023-07-29T04:39:40;12.57;;;10.90;;
12151;SDS011;6139;51.274;7.128;2023-07-29T04:40:41;11.20;;;10.27;;
12151;SDS011;6139;51.274;7.128;2023-07-29T04:41:43;10.85;;;9.95;;
12151;SDS011;6139;51.274;7.128;2023-07-29T04:42:44;11.25;;;10.18;;
12151;SDS011;6139;51.274;7.128;2023-07-29T04:43:46;10.35;;;9.55;;
12151;SDS011;6139;51.274;7.128;2023-07-29T04:44:48;10.73;;;9.80;;
12151;SDS011;6139;51.274;7.128;2023-07-29T04:45:50;10.02;;;9.23;;
12151;SDS011;6139;51.274;7.128;2023-07-29T04:46:51;9.02;;;8.23;;
12151;SDS011;6139;51.274;7.128;2023-07-29T04:47:54;8.70;;;8.00;;
12151;SDS011;6139;51.274;7.128;2023-07-29T04:48:55;8.95;;;8.25;;
12151;SDS011;6139;51.274;7.128;2023-07-29T04:49:57;9.60;;;8.70;;
12151;SDS011;6139;51.274;7.128;2023-07-29T04:50:58;10.02;;;8.27;;
12151;SDS011;6139;51.274;7.128;2023-07-29T04:51:59;9.13;;;8.23;;
12151;SDS011;6139;51.274;7.128;2023-07-29T04:53:01;8.57;;;7.85;;
12151;SDS011;6139;51.274;7.128;2023-07-29T04:54:02;10.30;;;8.00;;
12151;SDS011;6139;51.274;7.128;2023-07-29T04:55:04;8.63;;;7.82;;
12151;SDS011;6139;51.274;7.128;2023-07-29T04:56:06;8.05;;;7.35;;
12151;SDS011;6139;51.274;7.128;2023-07-29T04:57:07;8.40;;;7.45;;
12151;SDS011;6139;51.274;7.128;2023-07-29T04:58:09;8.52;;;7.70;;
12151;SDS011;6139;51.274;7.128;2023-07-29T04:59:10;8.07;;;7.38;;
12151;SDS011;6139;51.274;7.128;2023-07-29T05:00:14;7.97;;;7.18;;
12151;SDS011;6139;51.274;7.128;2023-07-29T05:01:16;6.63;;;6.13;;
12151;SDS011;6139;51.274;7.128;2023-07-29T05:02:18;7.32;;;6.32;;
12151;SDS011;6139;51.274;7.128;2023-07-29T05:03:19;6.43;;;5.93;;
12151;SDS011;6139;51.274;7.128;2023-07-29T05:04:23;7.10;;;5.88;;
12151;SDS011;6139;51.274;7.128;2023-07-29T05:05:24;6.05;;;5.55;;
12151;SDS011;6139;51.274;7.128;2023-07-29T05:06:26;5.50;;;5.00;;
12151;SDS011;6139;51.274;7.128;2023-07-29T05:07:27;6.05;;;5.47;;
12151;SDS011;6139;51.274;7.128;2023-07-29T05:08:29;5.32;;;4.93;;
12151;SDS011;6139;51.274;7.128;2023-07-29T05:09:30;5.70;;;5.30;;
12151;SDS011;6139;51.274;7.128;2023-07-29T05:10:32;5.40;;;5.00;;
12151;SDS011;6139;51.274;7.128;2023-07-29T05:11:33;5.90;;;5.40;;
12151;SDS011;6139;51.274;7.128;2023-07-29T05:12:35;6.10;;;5.20;;
12151;SDS011;6139;51.274;7.128;2023-07-29T05:13:36;5.93;;;4.63;;
12151;SDS011;6139;51.274;7.128;2023-07-29T05:14:39;5.30;;;4.60;;
12151;SDS011;6139;51.274;7.128;2023-07-29T05:15:41;6.55;;;4.55;;
12151;SDS011;6139;51.274;7.128;2023-07-29T05:16:43;7.00;;;4.30;;
12151;SDS011;6139;51.274;7.128;2023-07-29T05:17:44;5.22;;;3.92;;
12151;SDS011;6139;51.274;7.128;2023-07-29T05:18:46;4.05;;;3.75;;
12151;SDS011;6139;51.274;7.128;2023-07-29T05:19:47;4.43;;;4.10;;
12151;SDS011;6139;51.274;7.128;2023-07-29T05:20:50;3.72;;;3.42;;
12151;SDS011;6139;51.274;7.128;2023-07-29T05:21:51;5.55;;;4.13;;
12151;SDS011;6139;51.274;7.128;2023-07-29T05:22:53;3.90;;;3.50;;
12151;SDS011;6139;51.274;7.128;2023-07-29T05:23:54;3.78;;;3.47;;
12151;SDS011;6139;51.274;7.128;2023-07-29T05:24:56;4.35;;;3.80;;
12151;SDS011;6139;51.274;7.128;2023-07-29T05:25:57;4.35;;;3.92;;
12151;SDS011;6139;51.274;7.128;2023-07-29T05:26:59;4.28;;;3.70;;
12151;SDS011;6139;51.274;7.128;2023-07-29T05:28:00;4.20;;;3.80;;
12151;SDS011;6139;51.274;7.128;2023-07-29T05:29:02;3.70;;;3.40;;
12151;SDS011;6139;51.274;7.128;2023-07-29T05:30:04;5.82;;;3.75;;
12151;SDS011;6139;51.274;7.128;2023-07-29T05:31:09;3.97;;;3.67;;
12151;SDS011;6139;51.274;7.128;2023-07-29T05:32:10;5.53;;;3.80;;
12151;SDS011;6139;51.274;7.128;2023-07-29T05:33:12;3.85;;;3.55;;
12151;SDS011;6139;51.274;7.128;2023-07-29T05:34:13;3.60;;;3.30;;
12151;SDS011;6139;51.274;7.128;2023-07-29T05:35:15;3.60;;;3.30;;
12151;SDS011;6139;51.274;7.128;2023-07-29T05:36:17;3.83;;;3.42;;
12151;SDS011;6139;51.274;7.128;2023-07-29T05:37:18;6.00;;;3.65;;
12151;SDS011;6139;51.274;7.128;2023-07-29T05:38:20;3.83;;;3.50;;
12151;SDS011;6139;51.274;7.128;2023-07-29T05:39:21;4.82;;;4.00;;
12151;SDS011;6139;51.274;7.128;2023-07-29T05:40:24;4.03;;;3.72;;
12151;SDS011;6139;51.274;7.128;2023-07-29T05:41:25;4.70;;;4.15;;
12151;SDS011;6139;51.274;7.128;2023-07-29T05:42:29;5.38;;;3.85;;
12151;SDS011;6139;51.274;7.128;2023-07-29T05:43:30;6.65;;;4.10;;
12151;SDS011;6139;51.274;7.128;2023-07-29T05:44:32;5.65;;;4.03;;
12151;SDS011;6139;51.274;7.128;2023-07-29T05:45:34;4.35;;;3.95;;
12151;SDS011;6139;51.274;7.128;2023-07-29T05:46:37;4.60;;;3.90;;
12151;SDS011;6139;51.274;7.128;2023-07-29T05:47:38;5.28;;;4.20;;
12151;SDS011;6139;51.274;7.128;2023-07-29T05:48:41;4.97;;;3.92;;
12151;SDS011;6139;51.274;7.128;2023-07-29T05:49:42;4.40;;;4.00;;
12151;SDS011;6139;51.274;7.128;2023-07-29T05:50:44;5.22;;;3.80;;
12151;SDS011;6139;51.274;7.128;2023-07-29T05:51:45;4.80;;;4.40;;
12151;SDS011;6139;51.274;7.128;2023-07-29T05:52:47;5.75;;;4.10;;
12151;SDS011;6139;51.274;7.128;2023-07-29T05:53:48;6.57;;;4.10;;
12151;SDS011;6139;51.274;7.128;2023-07-29T05:54:50;4.50;;;4.10;;
12151;SDS011;6139;51.274;7.128;2023-07-29T05:55:51;4.88;;;4.47;;
12151;SDS011;6139;51.274;7.128;2023-07-29T05:56:53;6.65;;;4.40;;
12151;SDS011;6139;51.274;7.128;2023-07-29T05:57:55;4.35;;;4.05;;
12151;SDS011;6139;51.274;7.128;2023-07-29T05:58:56;4.72;;;4.28;;
12151;SDS011;6139;51.274;7.128;2023-07-29T05:59:58;5.85;;;3.80;;
12151;SDS011;6139;51.274;7.128;2023-07-29T06:01:00;4.78;;;4.30;;
12151;SDS011;6139;51.274;7.128;2023-07-29T06:02:05;5.47;;;4.38;;
12151;SDS011;6139;51.274;7.128;2023-07-29T06:03:06;5.43;;;4.65;;
12151;SDS011;6139;51.274;7.128;2023-07-29T06:04:08;4.68;;;4.28;;
12151;SDS011;6139;51.274;7.128;2023-07-29T06:05:09;7.20;;;4.47;;
12151;SDS011;6139;51.274;7.128;2023-07-29T06:06:11;4.97;;;4.25;;
12151;SDS011;6139;51.274;7.128;2023-07-29T06:07:12;5.03;;;4.63;;
12151;SDS011;6139;51.274;7.128;2023-07-29T06:08:14;5.60;;;4.38;;
12151;SDS011;6139;51.274;7.128;2023-07-29T06:09:16;4.38;;;4.05;;
12151;SDS011;6139;51.274;7.128;2023-07-29T06:10:18;5.22;;;4.50;;
12151;SDS011;6139;51.274;7.128;2023-07-29T06:11:19;4.97;;;4.47;;
12151;SDS011;6139;51.274;7.128;2023-07-29T06:12:21;4.93;;;4.43;;
12151;SDS011;6139;51.274;7.128;2023-07-29T06:13:22;4.63;;;4.22;;
12151;SDS011;6139;51.274;7.128;2023-07-29T06:14:24;5.63;;;4.20;;
12151;SDS011;6139;51.274;7.128;2023-07-29T06:15:25;4.78;;;4.28;;
12151;SDS011;6139;51.274;7.128;2023-07-29T06:16:27;5.22;;;4.32;;
12151;SDS011;6139;51.274;7.128;2023-07-29T06:17:29;4.53;;;4.13;;
12151;SDS011;6139;51.274;7.128;2023-07-29T06:18:31;5.95;;;4.13;;
12151;SDS011;6139;51.274;7.128;2023-07-29T06:19:32;4.28;;;3.97;;